createdAt,value
2023-01-15T00:02:10.408Z,99616.41
2023-01-15T00:04:39.814Z,99604.53
2023-01-15T00:07:09.051Z,99605.47
2023-01-15T00:09:37.687Z,99618.94
2023-01-15T00:12:07.184Z,99616.41
2023-01-15T00:14:35.835Z,99605.38
2023-01-15T00:17:05.385Z,99607.06
2023-01-15T00:19:35.566Z,99601.16
2023-01-15T00:22:05.145Z,99596.22
2023-01-15T00:24:43.541Z,99593.06
2023-01-15T00:27:22.362Z,99592.34
2023-01-15T00:29:51.258Z,99596.78
2023-01-15T00:32:19.991Z,99585.91
2023-01-15T00:34:50.187Z,99586.78
2023-01-15T00:37:18.982Z,99585.97
2023-01-15T00:39:47.656Z,99584.34
2023-01-15T00:42:16.398Z,99585.38
2023-01-15T00:44:45.561Z,99576.97
2023-01-15T00:47:15.438Z,99581.91
2023-01-15T00:49:44.667Z,99585.25
2023-01-15T00:52:14.919Z,99590.31
2023-01-15T00:54:44.661Z,99583.53
2023-01-15T00:57:13.464Z,99575.22
2023-01-15T00:59:42.315Z,99556.75
2023-01-15T01:02:11.100Z,99550.88
2023-01-15T01:04:39.994Z,99560.22
2023-01-15T01:07:08.770Z,99562.88
2023-01-15T01:09:39.111Z,99557.03
2023-01-15T01:12:08.328Z,99553.56
2023-01-15T01:14:38.480Z,99554.59
2023-01-15T01:17:07.247Z,99551.28
2023-01-15T01:19:36.175Z,99540.34
2023-01-15T01:22:04.965Z,99528.47
2023-01-15T01:24:33.771Z,99538.53
2023-01-15T01:27:03.949Z,99542.59
2023-01-15T01:29:32.707Z,99542.56
2023-01-15T01:32:01.432Z,99551.75
2023-01-15T01:34:30.257Z,99544.91
2023-01-15T01:37:00.153Z,99554.16
2023-01-15T01:39:29.472Z,99543.22
2023-01-15T01:41:58.229Z,99538.13
2023-01-15T01:44:48.801Z,99538.00
2023-01-15T01:47:23.351Z,99522.75
2023-01-15T01:49:59.171Z,99532.00
2023-01-15T01:52:32.097Z,99518.41
2023-01-15T01:55:03.395Z,99520.88
2023-01-15T01:57:34.381Z,99514.97
2023-01-15T02:00:07.277Z,99518.41
2023-01-15T02:02:47.288Z,99503.16
2023-01-15T02:05:23.294Z,99499.03
2023-01-15T02:07:53.030Z,99495.63
2023-01-15T02:10:21.868Z,99484.59
2023-01-15T02:13:02.084Z,99482.03
2023-01-15T02:15:37.342Z,99463.47
2023-01-15T02:18:18.350Z,99472.78
2023-01-15T02:20:52.082Z,99463.56
2023-01-15T02:23:43.670Z,99465.38
2023-01-15T02:26:42.913Z,99456.13
2023-01-15T02:29:19.514Z,99447.69
2023-01-15T02:31:53.766Z,99437.63
2023-01-15T02:34:29.354Z,99436.78
2023-01-15T02:37:05.021Z,99437.63
2023-01-15T02:39:39.381Z,99448.59
2023-01-15T02:42:11.234Z,99447.75
2023-01-15T02:44:52.524Z,99456.19
2023-01-15T02:47:27.602Z,99450.22
2023-01-15T02:50:02.819Z,99456.13
2023-01-15T02:52:43.647Z,99456.97
2023-01-15T02:55:19.080Z,99448.59
2023-01-15T02:57:51.957Z,99441.03
2023-01-15T03:00:26.029Z,99439.38
2023-01-15T03:03:02.491Z,99444.47
2023-01-15T03:05:37.921Z,99437.78
2023-01-15T03:08:10.143Z,99444.53
2023-01-15T03:10:47.834Z,99431.00
2023-01-15T03:13:22.591Z,99426.78
2023-01-15T03:16:13.574Z,99430.19
2023-01-15T03:18:47.424Z,99429.38
2023-01-15T03:21:22.821Z,99425.19
2023-01-15T03:23:57.742Z,99423.50
2023-01-15T03:26:29.403Z,99424.34
2023-01-15T03:29:00.819Z,99425.19
2023-01-15T03:31:32.393Z,99418.41
2023-01-15T03:34:01.219Z,99437.84
2023-01-15T03:36:30.845Z,99426.91
2023-01-15T03:39:03.680Z,99417.59
2023-01-15T03:42:05.244Z,99407.50
2023-01-15T03:44:42.481Z,99407.50
2023-01-15T03:47:27.901Z,99410.03
2023-01-15T03:50:08.145Z,99406.69
2023-01-15T03:52:49.877Z,99408.41
2023-01-15T03:55:26.232Z,99401.63
2023-01-15T03:58:07.025Z,99399.16
2023-01-15T04:00:46.623Z,99406.78
2023-01-15T04:03:20.414Z,99394.97
2023-01-15T04:05:50.540Z,99400.91
2023-01-15T04:08:21.380Z,99386.53
2023-01-15T04:10:54.700Z,99376.38
2023-01-15T04:13:25.355Z,99374.66
2023-01-15T04:15:55.636Z,99364.53
2023-01-15T04:18:25.964Z,99374.66
2023-01-15T04:20:56.103Z,99367.06
2023-01-15T04:23:24.943Z,99361.13
2023-01-15T04:25:53.752Z,99371.28
2023-01-15T04:28:22.484Z,99367.88
2023-01-15T04:30:51.315Z,99367.94
2023-01-15T04:33:20.043Z,99362.88
2023-01-15T04:35:50.251Z,99364.59
2023-01-15T04:38:19.306Z,99356.13
2023-01-15T04:40:58.175Z,99347.66
2023-01-15T04:43:35.771Z,99348.47
2023-01-15T04:46:05.027Z,99335.81
2023-01-15T04:48:33.808Z,99340.88
2023-01-15T04:51:06.854Z,99332.41
2023-01-15T04:53:35.812Z,99349.25
2023-01-15T04:56:06.317Z,99328.97
2023-01-15T04:58:36.153Z,99327.25
2023-01-15T05:01:06.678Z,99315.41
2023-01-15T05:03:35.436Z,99305.19
2023-01-15T05:06:06.601Z,99311.88
2023-01-15T05:08:35.776Z,99310.13
2023-01-15T05:11:05.216Z,99311.75
2023-01-15T05:13:35.552Z,99322.66
2023-01-15T05:16:11.393Z,99305.75
2023-01-15T05:18:40.724Z,99313.34
2023-01-15T05:21:20.901Z,99309.91
2023-01-15T05:23:50.536Z,99296.41
2023-01-15T05:26:19.180Z,99293.00
2023-01-15T05:28:47.844Z,99288.78
2023-01-15T05:31:19.355Z,99289.66
2023-01-15T05:33:49.947Z,99293.03
2023-01-15T05:36:22.611Z,99288.84
2023-01-15T05:38:51.501Z,99291.38
2023-01-15T05:41:32.105Z,99278.72
2023-01-15T05:44:02.972Z,99275.28
2023-01-15T05:46:31.885Z,99286.25
2023-01-15T05:49:02.514Z,99274.53
2023-01-15T05:51:33.169Z,99268.69
2023-01-15T05:54:02.003Z,99270.41
2023-01-15T05:56:30.742Z,99271.28
2023-01-15T05:58:59.661Z,99260.28
2023-01-15T06:01:28.426Z,99258.63
2023-01-15T06:04:00.034Z,99262.91
2023-01-15T06:06:29.200Z,99260.38
2023-01-15T06:08:59.845Z,99247.72
2023-01-15T06:11:28.927Z,99251.09
2023-01-15T06:13:57.697Z,99254.53
2023-01-15T06:16:26.799Z,99254.53
2023-01-15T06:18:55.558Z,99257.84
2023-01-15T06:21:24.350Z,99247.66
2023-01-15T06:23:55.034Z,99246.75
2023-01-15T06:26:25.249Z,99245.91
2023-01-15T06:28:54.079Z,99254.34
2023-01-15T06:31:27.316Z,99259.41
2023-01-15T06:33:56.096Z,99255.22
2023-01-15T06:36:29.157Z,99253.56
2023-01-15T06:38:58.016Z,99239.16
2023-01-15T06:41:38.410Z,99244.25
2023-01-15T06:44:17.452Z,99247.66
2023-01-15T06:46:57.865Z,99249.34
2023-01-15T06:49:26.644Z,99253.56
2023-01-15T06:51:55.413Z,99251.84
2023-01-15T06:54:27.665Z,99228.03
2023-01-15T06:56:57.953Z,99256.94
2023-01-15T06:59:27.076Z,99256.16
2023-01-15T07:01:55.773Z,99263.81
2023-01-15T07:04:24.578Z,99246.16
2023-01-15T07:06:53.354Z,99248.75
2023-01-15T07:09:22.148Z,99247.03
2023-01-15T07:11:50.871Z,99251.22
2023-01-15T07:14:23.541Z,99244.50
2023-01-15T07:16:53.238Z,99260.53
2023-01-15T07:19:22.476Z,99242.00
2023-01-15T07:21:51.344Z,99261.38
2023-01-15T07:24:20.301Z,99246.97
2023-01-15T07:26:49.241Z,99254.53
2023-01-15T07:29:18.084Z,99262.06
2023-01-15T07:31:48.235Z,99256.94
2023-01-15T07:34:16.967Z,99263.66
2023-01-15T07:36:45.666Z,99254.38
2023-01-15T07:39:14.491Z,99257.78
2023-01-15T07:41:53.489Z,99246.81
2023-01-15T07:44:31.731Z,99241.81
2023-01-15T07:47:11.743Z,99247.72
2023-01-15T07:49:46.794Z,99251.09
2023-01-15T07:52:17.364Z,99257.84
2023-01-15T07:54:47.448Z,99251.94
2023-01-15T07:57:19.306Z,99249.41
2023-01-15T07:59:48.672Z,99251.94
2023-01-15T08:02:19.101Z,99244.25
2023-01-15T08:04:48.584Z,99252.69
2023-01-15T08:07:18.281Z,99247.63
2023-01-15T08:09:47.042Z,99242.50
2023-01-15T08:12:25.453Z,99243.38
2023-01-15T08:15:04.036Z,99242.56
2023-01-15T08:17:34.976Z,99244.25
2023-01-15T08:20:03.754Z,99239.19
2023-01-15T08:22:32.400Z,99240.06
2023-01-15T08:25:01.273Z,99245.19
2023-01-15T08:27:32.225Z,99234.16
2023-01-15T08:30:02.628Z,99218.06
2023-01-15T08:32:35.790Z,99219.81
2023-01-15T08:35:04.695Z,99225.69
2023-01-15T08:37:33.301Z,99211.31
2023-01-15T08:40:02.081Z,99218.91
2023-01-15T08:42:30.965Z,99222.34
2023-01-15T08:45:00.163Z,99239.28
2023-01-15T08:47:28.873Z,99224.09
2023-01-15T08:49:59.212Z,99224.03
2023-01-15T08:52:28.006Z,99234.28
2023-01-15T08:54:56.660Z,99253.72
2023-01-15T08:57:25.446Z,99249.41
2023-01-15T08:59:54.341Z,99256.25
2023-01-15T09:02:23.025Z,99262.16
2023-01-15T09:04:53.012Z,99247.84
2023-01-15T09:07:23.343Z,99230.03
2023-01-15T09:09:52.142Z,99254.66
2023-01-15T09:12:22.833Z,99243.75
